Ocean City (26N)
Ocean City, NJ
Field Elevation: 8
Lat: 39°15.81N  Long: 74°36.45W
CTAF/Unicom Freq: 122.7000
   
     For Weather-by-Phone, call (609) 398-0705
Weather Advisories
2017-05-25   12:20 Z
Altimeter 29.59" Hg
Wind 060° @ 8 KT
Gusts 15 KT
Visibility 8 SM
Ceiling VV004
Temperature 14° C (57° F)
Dewpoint 14° C (57° F)
Relative Humidity 100%
Density Altitude --
Condensation Altitude --
Wind and Runways
Indicated Runway = 06
Headwind = 8 kt
Crosswind = 0 kt
History
 
 
 
More Info
All DigiWx sites map
Weather Radar
NOAA Forecast
 
Airport IQ 5010
(HMIEM) Shock Trauma Ctr
(PN44) Upper Gwynedd Heliport
 
about DigiWx
 
FAA Disclaimer: The data displayed is for advisory purposes only and is not to be used for flight planning or operations. For official data, please call (609) 398-0705 to hear the current automated AWOS voice message.
  METAR 26N 251220Z AUTO 06008G15KT VIS 8 SM VV004 14/14 A2959